sensor_id;sensor_type;location;lat;lon;timestamp;P1;durP1;ratioP1;P2;durP2;ratioP2
31182;SDS011;17813;0.000;0.000;2023-09-30T00:00:29;2.80;;;2.10;;
31182;SDS011;17813;0.000;0.000;2023-09-30T00:02:58;2.77;;;2.20;;
31182;SDS011;17813;0.000;0.000;2023-09-30T00:05:27;3.07;;;2.50;;
31182;SDS011;17813;0.000;0.000;2023-09-30T00:07:54;2.40;;;2.20;;
31182;SDS011;17813;0.000;0.000;2023-09-30T00:10:21;2.80;;;2.47;;
31182;SDS011;17813;0.000;0.000;2023-09-30T00:12:48;4.60;;;2.50;;
31182;SDS011;17813;0.000;0.000;2023-09-30T00:15:18;3.97;;;2.67;;
31182;SDS011;17813;0.000;0.000;2023-09-30T00:17:48;3.17;;;2.87;;
31182;SDS011;17813;0.000;0.000;2023-09-30T00:20:15;3.03;;;2.73;;
31182;SDS011;17813;0.000;0.000;2023-09-30T00:22:43;3.43;;;2.77;;
31182;SDS011;17813;0.000;0.000;2023-09-30T00:25:14;3.80;;;3.30;;
31182;SDS011;17813;0.000;0.000;2023-09-30T00:27:41;4.27;;;3.50;;
31182;SDS011;17813;0.000;0.000;2023-09-30T00:30:08;5.00;;;3.63;;
31182;SDS011;17813;0.000;0.000;2023-09-30T00:32:35;3.93;;;3.20;;
31182;SDS011;17813;0.000;0.000;2023-09-30T00:35:03;4.23;;;3.50;;
31182;SDS011;17813;0.000;0.000;2023-09-30T00:37:42;4.37;;;3.67;;
31182;SDS011;17813;0.000;0.000;2023-09-30T00:40:09;4.33;;;3.63;;
31182;SDS011;17813;0.000;0.000;2023-09-30T00:42:40;4.27;;;3.57;;
31182;SDS011;17813;0.000;0.000;2023-09-30T00:45:07;4.67;;;3.80;;
31182;SDS011;17813;0.000;0.000;2023-09-30T00:47:36;3.90;;;3.60;;
31182;SDS011;17813;0.000;0.000;2023-09-30T00:50:04;4.50;;;3.80;;
31182;SDS011;17813;0.000;0.000;2023-09-30T00:52:34;4.10;;;3.80;;
31182;SDS011;17813;0.000;0.000;2023-09-30T00:55:02;4.43;;;3.90;;
31182;SDS011;17813;0.000;0.000;2023-09-30T00:57:31;4.50;;;3.67;;
31182;SDS011;17813;0.000;0.000;2023-09-30T00:59:59;4.00;;;3.60;;
31182;SDS011;17813;0.000;0.000;2023-09-30T01:02:27;4.03;;;3.67;;
31182;SDS011;17813;0.000;0.000;2023-09-30T01:04:56;4.00;;;3.70;;
31182;SDS011;17813;0.000;0.000;2023-09-30T01:07:24;4.87;;;4.00;;
31182;SDS011;17813;0.000;0.000;2023-09-30T01:09:50;4.40;;;4.00;;
31182;SDS011;17813;0.000;0.000;2023-09-30T01:12:17;4.43;;;3.83;;
31182;SDS011;17813;0.000;0.000;2023-09-30T01:14:47;3.90;;;3.60;;
31182;SDS011;17813;0.000;0.000;2023-09-30T01:17:14;4.60;;;4.10;;
31182;SDS011;17813;0.000;0.000;2023-09-30T01:19:42;5.60;;;4.30;;
31182;SDS011;17813;0.000;0.000;2023-09-30T01:22:09;4.40;;;3.93;;
31182;SDS011;17813;0.000;0.000;2023-09-30T01:24:40;4.40;;;3.90;;
31182;SDS011;17813;0.000;0.000;2023-09-30T01:27:08;4.90;;;4.40;;
31182;SDS011;17813;0.000;0.000;2023-09-30T01:29:35;4.53;;;4.10;;
31182;SDS011;17813;0.000;0.000;2023-09-30T01:32:05;4.70;;;4.30;;
31182;SDS011;17813;0.000;0.000;2023-09-30T01:34:35;4.47;;;4.07;;
31182;SDS011;17813;0.000;0.000;2023-09-30T01:37:03;5.23;;;3.90;;
31182;SDS011;17813;0.000;0.000;2023-09-30T01:39:34;4.50;;;3.93;;
31182;SDS011;17813;0.000;0.000;2023-09-30T01:42:01;4.40;;;4.00;;
31182;SDS011;17813;0.000;0.000;2023-09-30T01:44:28;4.63;;;4.00;;
31182;SDS011;17813;0.000;0.000;2023-09-30T01:46:55;5.10;;;4.00;;
31182;SDS011;17813;0.000;0.000;2023-09-30T01:49:23;4.77;;;4.00;;
31182;SDS011;17813;0.000;0.000;2023-09-30T01:51:54;4.93;;;3.40;;
31182;SDS011;17813;0.000;0.000;2023-09-30T01:54:21;4.47;;;3.50;;
31182;SDS011;17813;0.000;0.000;2023-09-30T01:56:48;6.63;;;3.60;;
31182;SDS011;17813;0.000;0.000;2023-09-30T01:59:15;4.40;;;3.00;;
31182;SDS011;17813;0.000;0.000;2023-09-30T02:01:42;6.00;;;3.50;;
31182;SDS011;17813;0.000;0.000;2023-09-30T02:04:12;3.77;;;3.20;;
31182;SDS011;17813;0.000;0.000;2023-09-30T02:06:44;5.10;;;3.30;;
31182;SDS011;17813;0.000;0.000;2023-09-30T02:09:11;5.13;;;3.20;;
31182;SDS011;17813;0.000;0.000;2023-09-30T02:11:38;3.57;;;2.80;;
31182;SDS011;17813;0.000;0.000;2023-09-30T02:14:09;6.37;;;3.37;;
31182;SDS011;17813;0.000;0.000;2023-09-30T02:16:41;5.50;;;3.40;;
31182;SDS011;17813;0.000;0.000;2023-09-30T02:19:08;4.23;;;2.70;;
31182;SDS011;17813;0.000;0.000;2023-09-30T02:21:38;3.60;;;2.80;;
31182;SDS011;17813;0.000;0.000;2023-09-30T02:24:05;5.20;;;3.10;;
31182;SDS011;17813;0.000;0.000;2023-09-30T02:26:33;5.43;;;3.23;;
31182;SDS011;17813;0.000;0.000;2023-09-30T02:29:00;3.00;;;2.70;;
31182;SDS011;17813;0.000;0.000;2023-09-30T02:31:26;7.20;;;3.17;;
31182;SDS011;17813;0.000;0.000;2023-09-30T02:33:53;4.87;;;3.03;;
31182;SDS011;17813;0.000;0.000;2023-09-30T02:36:20;5.43;;;3.20;;
31182;SDS011;17813;0.000;0.000;2023-09-30T02:38:47;5.50;;;3.10;;
31182;SDS011;17813;0.000;0.000;2023-09-30T02:41:15;5.17;;;3.17;;
31182;SDS011;17813;0.000;0.000;2023-09-30T02:43:43;5.57;;;3.30;;
31182;SDS011;17813;0.000;0.000;2023-09-30T02:46:10;3.97;;;2.70;;
31182;SDS011;17813;0.000;0.000;2023-09-30T02:48:38;4.47;;;2.70;;
31182;SDS011;17813;0.000;0.000;2023-09-30T02:51:08;5.03;;;3.03;;
31182;SDS011;17813;0.000;0.000;2023-09-30T02:53:37;5.40;;;3.20;;
31182;SDS011;17813;0.000;0.000;2023-09-30T02:56:04;4.77;;;2.90;;
31182;SDS011;17813;0.000;0.000;2023-09-30T02:58:32;4.90;;;2.90;;
31182;SDS011;17813;0.000;0.000;2023-09-30T03:01:02;5.33;;;2.90;;
31182;SDS011;17813;0.000;0.000;2023-09-30T03:03:29;5.20;;;3.10;;
31182;SDS011;17813;0.000;0.000;2023-09-30T03:05:56;4.70;;;3.00;;
31182;SDS011;17813;0.000;0.000;2023-09-30T03:08:24;3.87;;;3.00;;
31182;SDS011;17813;0.000;0.000;2023-09-30T03:10:51;6.17;;;3.00;;
31182;SDS011;17813;0.000;0.000;2023-09-30T03:13:18;4.47;;;3.23;;
31182;SDS011;17813;0.000;0.000;2023-09-30T03:15:47;6.20;;;3.20;;
31182;SDS011;17813;0.000;0.000;2023-09-30T03:18:15;5.73;;;3.10;;
31182;SDS011;17813;0.000;0.000;2023-09-30T03:20:52;6.00;;;3.90;;
31182;SDS011;17813;0.000;0.000;2023-09-30T03:23:29;6.07;;;3.70;;
31182;SDS011;17813;0.000;0.000;2023-09-30T03:25:57;4.77;;;3.23;;
31182;SDS011;17813;0.000;0.000;2023-09-30T03:28:26;4.40;;;3.10;;
31182;SDS011;17813;0.000;0.000;2023-09-30T03:30:54;6.10;;;3.03;;
31182;SDS011;17813;0.000;0.000;2023-09-30T03:33:22;6.73;;;3.37;;
31182;SDS011;17813;0.000;0.000;2023-09-30T03:35:49;4.23;;;3.00;;
31182;SDS011;17813;0.000;0.000;2023-09-30T03:38:17;5.27;;;3.17;;
31182;SDS011;17813;0.000;0.000;2023-09-30T03:40:45;6.37;;;3.50;;
31182;SDS011;17813;0.000;0.000;2023-09-30T03:43:16;6.53;;;3.60;;
31182;SDS011;17813;0.000;0.000;2023-09-30T03:45:43;7.47;;;3.30;;
31182;SDS011;17813;0.000;0.000;2023-09-30T03:48:11;3.63;;;3.00;;
31182;SDS011;17813;0.000;0.000;2023-09-30T03:50:38;5.77;;;3.00;;
31182;SDS011;17813;0.000;0.000;2023-09-30T03:53:05;4.23;;;2.80;;
31182;SDS011;17813;0.000;0.000;2023-09-30T03:55:35;4.83;;;3.17;;
31182;SDS011;17813;0.000;0.000;2023-09-30T03:58:02;4.50;;;2.80;;
31182;SDS011;17813;0.000;0.000;2023-09-30T04:00:29;4.17;;;3.10;;
31182;SDS011;17813;0.000;0.000;2023-09-30T04:02:57;4.20;;;2.93;;
31182;SDS011;17813;0.000;0.000;2023-09-30T04:05:25;5.10;;;3.17;;
31182;SDS011;17813;0.000;0.000;2023-09-30T04:07:55;4.50;;;3.10;;
31182;SDS011;17813;0.000;0.000;2023-09-30T04:10:22;6.30;;;3.23;;
31182;SDS011;17813;0.000;0.000;2023-09-30T04:12:49;6.90;;;3.07;;
31182;SDS011;17813;0.000;0.000;2023-09-30T04:15:17;6.07;;;3.17;;
31182;SDS011;17813;0.000;0.000;2023-09-30T04:17:44;4.77;;;2.97;;
31182;SDS011;17813;0.000;0.000;2023-09-30T04:20:11;4.23;;;3.10;;
31182;SDS011;17813;0.000;0.000;2023-09-30T04:22:42;5.30;;;2.83;;
31182;SDS011;17813;0.000;0.000;2023-09-30T04:25:16;4.90;;;2.83;;
31182;SDS011;17813;0.000;0.000;2023-09-30T04:27:44;4.90;;;2.90;;
31182;SDS011;17813;0.000;0.000;2023-09-30T04:30:13;3.97;;;2.87;;
31182;SDS011;17813;0.000;0.000;2023-09-30T04:32:41;4.67;;;2.90;;
31182;SDS011;17813;0.000;0.000;2023-09-30T04:35:10;4.57;;;2.53;;
31182;SDS011;17813;0.000;0.000;2023-09-30T04:37:37;5.73;;;2.77;;
31182;SDS011;17813;0.000;0.000;2023-09-30T04:40:04;5.53;;;2.80;;
31182;SDS011;17813;0.000;0.000;2023-09-30T04:42:53;4.43;;;3.00;;
31182;SDS011;17813;0.000;0.000;2023-09-30T04:45:24;3.93;;;2.77;;
31182;SDS011;17813;0.000;0.000;2023-09-30T04:47:52;4.63;;;2.97;;
31182;SDS011;17813;0.000;0.000;2023-09-30T04:50:21;4.17;;;3.03;;
31182;SDS011;17813;0.000;0.000;2023-09-30T04:52:50;6.53;;;3.37;;
31182;SDS011;17813;0.000;0.000;2023-09-30T04:55:17;5.20;;;3.10;;
31182;SDS011;17813;0.000;0.000;2023-09-30T04:57:45;4.30;;;2.93;;
31182;SDS011;17813;0.000;0.000;2023-09-30T05:00:16;4.93;;;2.87;;
31182;SDS011;17813;0.000;0.000;2023-09-30T05:02:45;4.97;;;2.93;;
31182;SDS011;17813;0.000;0.000;2023-09-30T05:05:12;4.70;;;2.77;;
31182;SDS011;17813;0.000;0.000;2023-09-30T05:07:40;5.00;;;2.90;;
31182;SDS011;17813;0.000;0.000;2023-09-30T05:10:07;6.47;;;3.00;;
31182;SDS011;17813;0.000;0.000;2023-09-30T05:12:44;5.33;;;2.90;;
31182;SDS011;17813;0.000;0.000;2023-09-30T05:15:12;3.77;;;3.00;;
31182;SDS011;17813;0.000;0.000;2023-09-30T05:17:43;4.47;;;2.90;;
31182;SDS011;17813;0.000;0.000;2023-09-30T05:20:10;4.37;;;2.77;;
31182;SDS011;17813;0.000;0.000;2023-09-30T05:22:38;4.03;;;2.90;;
31182;SDS011;17813;0.000;0.000;2023-09-30T05:25:11;3.93;;;2.90;;
31182;SDS011;17813;0.000;0.000;2023-09-30T05:27:42;4.40;;;3.00;;
31182;SDS011;17813;0.000;0.000;2023-09-30T05:30:14;4.10;;;2.97;;
31182;SDS011;17813;0.000;0.000;2023-09-30T05:32:42;4.97;;;2.90;;
31182;SDS011;17813;0.000;0.000;2023-09-30T05:35:12;3.63;;;2.70;;
31182;SDS011;17813;0.000;0.000;2023-09-30T05:37:40;3.80;;;2.60;;
31182;SDS011;17813;0.000;0.000;2023-09-30T05:40:08;3.73;;;2.60;;
31182;SDS011;17813;0.000;0.000;2023-09-30T05:42:48;5.53;;;2.90;;
31182;SDS011;17813;0.000;0.000;2023-09-30T05:45:18;3.97;;;2.60;;
31182;SDS011;17813;0.000;0.000;2023-09-30T05:47:46;4.03;;;2.80;;
31182;SDS011;17813;0.000;0.000;2023-09-30T05:50:13;3.37;;;2.67;;
31182;SDS011;17813;0.000;0.000;2023-09-30T05:52:43;4.77;;;2.87;;
31182;SDS011;17813;0.000;0.000;2023-09-30T05:55:11;4.90;;;2.93;;
31182;SDS011;17813;0.000;0.000;2023-09-30T05:57:39;6.73;;;3.47;;
31182;SDS011;17813;0.000;0.000;2023-09-30T06:00:11;4.23;;;2.70;;
31182;SDS011;17813;0.000;0.000;2023-09-30T06:02:49;6.37;;;2.87;;
31182;SDS011;17813;0.000;0.000;2023-09-30T06:05:17;4.20;;;2.87;;
31182;SDS011;17813;0.000;0.000;2023-09-30T06:07:48;4.30;;;2.80;;
31182;SDS011;17813;0.000;0.000;2023-09-30T06:10:15;4.27;;;2.90;;
31182;SDS011;17813;0.000;0.000;2023-09-30T06:12:45;2.90;;;2.60;;
31182;SDS011;17813;0.000;0.000;2023-09-30T06:15:13;4.30;;;2.67;;
31182;SDS011;17813;0.000;0.000;2023-09-30T06:17:41;5.37;;;3.00;;
31182;SDS011;17813;0.000;0.000;2023-09-30T06:20:09;6.43;;;3.40;;
31182;SDS011;17813;0.000;0.000;2023-09-30T06:22:43;5.20;;;3.00;;
31182;SDS011;17813;0.000;0.000;2023-09-30T06:25:13;5.53;;;3.20;;
31182;SDS011;17813;0.000;0.000;2023-09-30T06:27:44;6.07;;;3.03;;
31182;SDS011;17813;0.000;0.000;2023-09-30T06:30:12;5.93;;;3.40;;
31182;SDS011;17813;0.000;0.000;2023-09-30T06:32:44;4.43;;;2.90;;
31182;SDS011;17813;0.000;0.000;2023-09-30T06:35:11;5.20;;;3.17;;
31182;SDS011;17813;0.000;0.000;2023-09-30T06:37:39;4.93;;;3.10;;
31182;SDS011;17813;0.000;0.000;2023-09-30T06:40:10;6.17;;;2.83;;
31182;SDS011;17813;0.000;0.000;2023-09-30T06:42:40;6.33;;;2.97;;
31182;SDS011;17813;0.000;0.000;2023-09-30T06:45:09;4.93;;;3.10;;
31182;SDS011;17813;0.000;0.000;2023-09-30T06:47:39;5.40;;;2.90;;
31182;SDS011;17813;0.000;0.000;2023-09-30T06:50:10;4.93;;;3.10;;
31182;SDS011;17813;0.000;0.000;2023-09-30T06:52:42;5.80;;;2.93;;
31182;SDS011;17813;0.000;0.000;2023-09-30T06:55:11;5.93;;;2.90;;
31182;SDS011;17813;0.000;0.000;2023-09-30T06:57:45;5.70;;;2.70;;
31182;SDS011;17813;0.000;0.000;2023-09-30T07:00:13;6.33;;;2.90;;
31182;SDS011;17813;0.000;0.000;2023-09-30T07:02:44;4.47;;;2.60;;
31182;SDS011;17813;0.000;0.000;2023-09-30T07:05:12;5.00;;;2.80;;
31182;SDS011;17813;0.000;0.000;2023-09-30T07:07:40;5.33;;;2.60;;
31182;SDS011;17813;0.000;0.000;2023-09-30T07:10:12;5.10;;;2.47;;
31182;SDS011;17813;0.000;0.000;2023-09-30T07:12:41;4.30;;;2.40;;
31182;SDS011;17813;0.000;0.000;2023-09-30T07:15:08;5.40;;;2.80;;
31182;SDS011;17813;0.000;0.000;2023-09-30T07:17:35;5.50;;;2.67;;
31182;SDS011;17813;0.000;0.000;2023-09-30T07:20:03;5.43;;;3.63;;
31182;SDS011;17813;0.000;0.000;2023-09-30T07:22:33;5.13;;;3.00;;
31182;SDS011;17813;0.000;0.000;2023-09-30T07:25:02;5.73;;;2.80;;
31182;SDS011;17813;0.000;0.000;2023-09-30T07:27:30;7.13;;;2.90;;
31182;SDS011;17813;0.000;0.000;2023-09-30T07:29:57;5.50;;;3.00;;
31182;SDS011;17813;0.000;0.000;2023-09-30T07:32:24;4.37;;;2.83;;
31182;SDS011;17813;0.000;0.000;2023-09-30T07:34:51;5.33;;;3.37;;
31182;SDS011;17813;0.000;0.000;2023-09-30T07:37:19;6.37;;;3.60;;
31182;SDS011;17813;0.000;0.000;2023-09-30T07:39:46;8.07;;;4.80;;
31182;SDS011;17813;0.000;0.000;2023-09-30T07:42:13;8.67;;;4.40;;
31182;SDS011;17813;0.000;0.000;2023-09-30T07:44:50;6.00;;;4.30;;
31182;SDS011;17813;0.000;0.000;2023-09-30T07:47:20;8.83;;;4.23;;
31182;SDS011;17813;0.000;0.000;2023-09-30T07:49:48;8.40;;;4.00;;
31182;SDS011;17813;0.000;0.000;2023-09-30T07:52:16;5.63;;;3.50;;
31182;SDS011;17813;0.000;0.000;2023-09-30T07:54:43;5.87;;;3.43;;
31182;SDS011;17813;0.000;0.000;2023-09-30T07:57:11;6.23;;;3.67;;
31182;SDS011;17813;0.000;0.000;2023-09-30T07:59:38;6.17;;;3.27;;
31182;SDS011;17813;0.000;0.000;2023-09-30T08:02:05;7.43;;;3.20;;
31182;SDS011;17813;0.000;0.000;2023-09-30T08:04:37;4.80;;;2.83;;
31182;SDS011;17813;0.000;0.000;2023-09-30T08:07:05;5.63;;;3.13;;
31182;SDS011;17813;0.000;0.000;2023-09-30T08:09:33;6.37;;;3.27;;
31182;SDS011;17813;0.000;0.000;2023-09-30T08:12:05;5.03;;;2.90;;
31182;SDS011;17813;0.000;0.000;2023-09-30T08:14:37;4.97;;;3.10;;
31182;SDS011;17813;0.000;0.000;2023-09-30T08:17:05;4.83;;;2.77;;
31182;SDS011;17813;0.000;0.000;2023-09-30T08:19:32;5.70;;;2.80;;
31182;SDS011;17813;0.000;0.000;2023-09-30T08:22:00;4.60;;;2.67;;
31182;SDS011;17813;0.000;0.000;2023-09-30T08:24:29;6.00;;;2.87;;
31182;SDS011;17813;0.000;0.000;2023-09-30T08:26:56;5.85;;;2.88;;
31182;SDS011;17813;0.000;0.000;2023-09-30T08:29:23;5.80;;;2.85;;
31182;SDS011;17813;0.000;0.000;2023-09-30T08:31:52;5.70;;;2.95;;
31182;SDS011;17813;0.000;0.000;2023-09-30T08:34:19;4.68;;;2.53;;
31182;SDS011;17813;0.000;0.000;2023-09-30T08:36:51;5.22;;;2.70;;
31182;SDS011;17813;0.000;0.000;2023-09-30T08:39:18;5.35;;;3.10;;
31182;SDS011;17813;0.000;0.000;2023-09-30T08:41:46;5.97;;;2.83;;
31182;SDS011;17813;0.000;0.000;2023-09-30T08:44:19;5.30;;;2.60;;
31182;SDS011;17813;0.000;0.000;2023-09-30T08:46:47;5.00;;;2.78;;
31182;SDS011;17813;0.000;0.000;2023-09-30T08:49:18;6.47;;;2.60;;
31182;SDS011;17813;0.000;0.000;2023-09-30T08:51:48;3.47;;;2.58;;
31182;SDS011;17813;0.000;0.000;2023-09-30T08:54:16;4.50;;;2.60;;
31182;SDS011;17813;0.000;0.000;2023-09-30T08:56:52;4.15;;;2.35;;
31182;SDS011;17813;0.000;0.000;2023-09-30T08:59:21;4.15;;;2.35;;
31182;SDS011;17813;0.000;0.000;2023-09-30T09:01:51;6.47;;;2.67;;
31182;SDS011;17813;0.000;0.000;2023-09-30T09:04:20;5.22;;;2.38;;
31182;SDS011;17813;0.000;0.000;2023-09-30T09:06:47;5.15;;;2.83;;
31182;SDS011;17813;0.000;0.000;2023-09-30T09:09:15;7.63;;;2.95;;
31182;SDS011;17813;0.000;0.000;2023-09-30T09:11:45;3.95;;;2.20;;
31182;SDS011;17813;0.000;0.000;2023-09-30T09:14:14;4.40;;;2.38;;
31182;SDS011;17813;0.000;0.000;2023-09-30T09:16:50;3.97;;;2.40;;
31182;SDS011;17813;0.000;0.000;2023-09-30T09:19:21;5.38;;;2.42;;
31182;SDS011;17813;0.000;0.000;2023-09-30T09:21:53;4.45;;;2.30;;
31182;SDS011;17813;0.000;0.000;2023-09-30T09:27:12;5.07;;;2.58;;
31182;SDS011;17813;0.000;0.000;2023-09-30T09:29:43;5.65;;;2.30;;
31182;SDS011;17813;0.000;0.000;2023-09-30T09:34:45;6.32;;;2.40;;
31182;SDS011;17813;0.000;0.000;2023-09-30T09:37:27;4.32;;;2.45;;
31182;SDS011;17813;0.000;0.000;2023-09-30T09:39:59;5.45;;;2.47;;
31182;SDS011;17813;0.000;0.000;2023-09-30T09:42:31;3.78;;;2.40;;
31182;SDS011;17813;0.000;0.000;2023-09-30T09:45:01;3.67;;;2.35;;
31182;SDS011;17813;0.000;0.000;2023-09-30T09:47:34;3.88;;;2.10;;
31182;SDS011;17813;0.000;0.000;2023-09-30T09:50:03;4.53;;;2.50;;
31182;SDS011;17813;0.000;0.000;2023-09-30T09:52:32;5.72;;;2.30;;
31182;SDS011;17813;0.000;0.000;2023-09-30T09:55:01;4.57;;;2.20;;
31182;SDS011;17813;0.000;0.000;2023-09-30T09:57:29;4.35;;;2.22;;
31182;SDS011;17813;0.000;0.000;2023-09-30T09:59:59;4.45;;;2.60;;
31182;SDS011;17813;0.000;0.000;2023-09-30T10:02:31;4.18;;;2.33;;
31182;SDS011;17813;0.000;0.000;2023-09-30T10:04:59;4.68;;;2.30;;
31182;SDS011;17813;0.000;0.000;2023-09-30T10:07:30;3.60;;;1.80;;
31182;SDS011;17813;0.000;0.000;2023-09-30T10:10:02;3.85;;;1.95;;
31182;SDS011;17813;0.000;0.000;2023-09-30T10:12:37;6.05;;;2.35;;
31182;SDS011;17813;0.000;0.000;2023-09-30T10:18:04;4.47;;;2.10;;
31182;SDS011;17813;0.000;0.000;2023-09-30T10:20:39;4.68;;;2.08;;
31182;SDS011;17813;0.000;0.000;2023-09-30T10:23:19;4.82;;;2.15;;
31182;SDS011;17813;0.000;0.000;2023-09-30T10:26:15;3.70;;;2.08;;
31182;SDS011;17813;0.000;0.000;2023-09-30T10:28:44;4.32;;;2.38;;
31182;SDS011;17813;0.000;0.000;2023-09-30T10:31:20;3.05;;;1.90;;
31182;SDS011;17813;0.000;0.000;2023-09-30T10:36:33;4.03;;;2.08;;
31182;SDS011;17813;0.000;0.000;2023-09-30T10:39:05;4.53;;;2.03;;
31182;SDS011;17813;0.000;0.000;2023-09-30T10:44:31;3.45;;;2.00;;
31182;SDS011;17813;0.000;0.000;2023-09-30T10:50:04;3.88;;;1.95;;
31182;SDS011;17813;0.000;0.000;2023-09-30T10:53:30;4.97;;;2.20;;
31182;SDS011;17813;0.000;0.000;2023-09-30T10:56:00;3.05;;;1.80;;
31182;SDS011;17813;0.000;0.000;2023-09-30T11:01:15;3.05;;;1.63;;
31182;SDS011;17813;0.000;0.000;2023-09-30T11:03:46;2.92;;;1.80;;
31182;SDS011;17813;0.000;0.000;2023-09-30T11:06:17;4.50;;;1.65;;
31182;SDS011;17813;0.000;0.000;2023-09-30T11:08:53;2.85;;;1.70;;
31182;SDS011;17813;0.000;0.000;2023-09-30T11:11:34;3.95;;;1.95;;
31182;SDS011;17813;0.000;0.000;2023-09-30T11:14:04;2.47;;;1.55;;
31182;SDS011;17813;0.000;0.000;2023-09-30T11:16:46;3.53;;;1.77;;
31182;SDS011;17813;0.000;0.000;2023-09-30T11:19:14;2.97;;;1.70;;
31182;SDS011;17813;0.000;0.000;2023-09-30T11:21:42;3.05;;;1.48;;
31182;SDS011;17813;0.000;0.000;2023-09-30T11:24:13;4.68;;;1.80;;
31182;SDS011;17813;0.000;0.000;2023-09-30T11:26:41;3.10;;;1.50;;
31182;SDS011;17813;0.000;0.000;2023-09-30T11:29:12;3.00;;;1.70;;
31182;SDS011;17813;0.000;0.000;2023-09-30T11:31:44;2.10;;;1.40;;
31182;SDS011;17813;0.000;0.000;2023-09-30T11:34:14;3.33;;;1.65;;
31182;SDS011;17813;0.000;0.000;2023-09-30T11:36:52;3.08;;;1.70;;
31182;SDS011;17813;0.000;0.000;2023-09-30T11:41:51;3.55;;;1.80;;
31182;SDS011;17813;0.000;0.000;2023-09-30T11:44:18;3.30;;;2.08;;
31182;SDS011;17813;0.000;0.000;2023-09-30T11:46:55;4.05;;;2.15;;
31182;SDS011;17813;0.000;0.000;2023-09-30T11:49:30;3.33;;;1.75;;
31182;SDS011;17813;0.000;0.000;2023-09-30T11:52:05;3.72;;;1.90;;
31182;SDS011;17813;0.000;0.000;2023-09-30T11:54:35;3.53;;;2.00;;
31182;SDS011;17813;0.000;0.000;2023-09-30T11:57:09;3.30;;;1.90;;
31182;SDS011;17813;0.000;0.000;2023-09-30T11:59:43;4.53;;;1.95;;
31182;SDS011;17813;0.000;0.000;2023-09-30T12:02:12;3.70;;;1.80;;
31182;SDS011;17813;0.000;0.000;2023-09-30T12:04:41;4.65;;;1.90;;
31182;SDS011;17813;0.000;0.000;2023-09-30T12:07:09;3.17;;;2.17;;
31182;SDS011;17813;0.000;0.000;2023-09-30T12:09:40;4.28;;;2.00;;
31182;SDS011;17813;0.000;0.000;2023-09-30T12:12:07;5.53;;;1.90;;
31182;SDS011;17813;0.000;0.000;2023-09-30T12:14:35;4.15;;;2.00;;
31182;SDS011;17813;0.000;0.000;2023-09-30T12:17:02;2.17;;;1.70;;
31182;SDS011;17813;0.000;0.000;2023-09-30T12:19:30;4.07;;;2.00;;
31182;SDS011;17813;0.000;0.000;2023-09-30T12:21:58;4.85;;;1.90;;
31182;SDS011;17813;0.000;0.000;2023-09-30T12:24:25;4.80;;;2.00;;
31182;SDS011;17813;0.000;0.000;2023-09-30T12:26:52;4.00;;;1.90;;
31182;SDS011;17813;0.000;0.000;2023-09-30T12:29:21;3.20;;;2.15;;
31182;SDS011;17813;0.000;0.000;2023-09-30T12:31:51;3.22;;;2.00;;
31182;SDS011;17813;0.000;0.000;2023-09-30T12:34:19;2.45;;;1.70;;
31182;SDS011;17813;0.000;0.000;2023-09-30T12:36:49;3.88;;;2.25;;
31182;SDS011;17813;0.000;0.000;2023-09-30T12:39:16;2.92;;;2.00;;
31182;SDS011;17813;0.000;0.000;2023-09-30T12:41:49;3.28;;;1.80;;
31182;SDS011;17813;0.000;0.000;2023-09-30T12:44:17;4.00;;;2.05;;
31182;SDS011;17813;0.000;0.000;2023-09-30T12:46:44;3.40;;;2.10;;
31182;SDS011;17813;0.000;0.000;2023-09-30T12:49:11;2.65;;;1.65;;
31182;SDS011;17813;0.000;0.000;2023-09-30T12:51:39;3.47;;;1.75;;
31182;SDS011;17813;0.000;0.000;2023-09-30T12:54:06;4.10;;;2.00;;
31182;SDS011;17813;0.000;0.000;2023-09-30T12:56:34;3.30;;;2.00;;
31182;SDS011;17813;0.000;0.000;2023-09-30T12:59:01;2.72;;;1.70;;
31182;SDS011;17813;0.000;0.000;2023-09-30T13:01:28;2.95;;;1.65;;
31182;SDS011;17813;0.000;0.000;2023-09-30T13:03:58;4.00;;;2.17;;
31182;SDS011;17813;0.000;0.000;2023-09-30T13:06:25;4.13;;;1.90;;
31182;SDS011;17813;0.000;0.000;2023-09-30T13:08:53;3.10;;;1.70;;
31182;SDS011;17813;0.000;0.000;2023-09-30T13:11:20;2.80;;;1.90;;
31182;SDS011;17813;0.000;0.000;2023-09-30T13:13:48;4.05;;;2.20;;
31182;SDS011;17813;0.000;0.000;2023-09-30T13:16:14;2.95;;;1.65;;
31182;SDS011;17813;0.000;0.000;2023-09-30T13:18:41;2.95;;;2.22;;
31182;SDS011;17813;0.000;0.000;2023-09-30T13:21:08;3.78;;;1.98;;
31182;SDS011;17813;0.000;0.000;2023-09-30T13:23:37;3.92;;;1.90;;
31182;SDS011;17813;0.000;0.000;2023-09-30T13:26:05;4.15;;;1.80;;
31182;SDS011;17813;0.000;0.000;2023-09-30T13:28:35;3.85;;;1.80;;
31182;SDS011;17813;0.000;0.000;2023-09-30T13:31:03;4.40;;;1.70;;
31182;SDS011;17813;0.000;0.000;2023-09-30T13:33:31;3.70;;;1.90;;
31182;SDS011;17813;0.000;0.000;2023-09-30T13:35:57;3.42;;;1.80;;
31182;SDS011;17813;0.000;0.000;2023-09-30T13:38:25;3.33;;;1.75;;
31182;SDS011;17813;0.000;0.000;2023-09-30T13:40:52;3.13;;;1.70;;
31182;SDS011;17813;0.000;0.000;2023-09-30T13:43:20;3.45;;;1.80;;
31182;SDS011;17813;0.000;0.000;2023-09-30T13:45:47;2.95;;;1.98;;
31182;SDS011;17813;0.000;0.000;2023-09-30T13:48:14;3.15;;;1.85;;
31182;SDS011;17813;0.000;0.000;2023-09-30T13:50:41;4.20;;;1.98;;
31182;SDS011;17813;0.000;0.000;2023-09-30T13:53:08;3.40;;;1.90;;
31182;SDS011;17813;0.000;0.000;2023-09-30T13:55:39;3.55;;;1.88;;
31182;SDS011;17813;0.000;0.000;2023-09-30T13:58:06;3.35;;;2.00;;
31182;SDS011;17813;0.000;0.000;2023-09-30T14:00:35;2.63;;;1.75;;
31182;SDS011;17813;0.000;0.000;2023-09-30T14:03:02;3.45;;;2.08;;
31182;SDS011;17813;0.000;0.000;2023-09-30T14:05:31;4.40;;;2.00;;
31182;SDS011;17813;0.000;0.000;2023-09-30T14:07:58;2.58;;;1.80;;
31182;SDS011;17813;0.000;0.000;2023-09-30T14:10:26;3.20;;;2.00;;
31182;SDS011;17813;0.000;0.000;2023-09-30T14:12:55;4.15;;;1.95;;
31182;SDS011;17813;0.000;0.000;2023-09-30T14:15:23;4.07;;;1.98;;
31182;SDS011;17813;0.000;0.000;2023-09-30T14:17:54;3.38;;;2.08;;
31182;SDS011;17813;0.000;0.000;2023-09-30T14:20:21;3.92;;;2.08;;
31182;SDS011;17813;0.000;0.000;2023-09-30T14:22:48;4.15;;;2.10;;
31182;SDS011;17813;0.000;0.000;2023-09-30T14:25:17;3.00;;;1.90;;
31182;SDS011;17813;0.000;0.000;2023-09-30T14:27:44;2.47;;;1.83;;
31182;SDS011;17813;0.000;0.000;2023-09-30T14:30:13;4.75;;;2.00;;
31182;SDS011;17813;0.000;0.000;2023-09-30T14:32:42;3.00;;;1.80;;
31182;SDS011;17813;0.000;0.000;2023-09-30T14:35:09;3.97;;;1.90;;
31182;SDS011;17813;0.000;0.000;2023-09-30T14:37:36;3.65;;;1.95;;
31182;SDS011;17813;0.000;0.000;2023-09-30T14:40:03;3.63;;;1.90;;
31182;SDS011;17813;0.000;0.000;2023-09-30T14:42:34;3.72;;;1.90;;
31182;SDS011;17813;0.000;0.000;2023-09-30T14:45:03;3.38;;;1.90;;
31182;SDS011;17813;0.000;0.000;2023-09-30T14:47:30;3.58;;;1.85;;
31182;SDS011;17813;0.000;0.000;2023-09-30T14:49:57;3.45;;;2.00;;
31182;SDS011;17813;0.000;0.000;2023-09-30T14:52:28;3.03;;;1.75;;
31182;SDS011;17813;0.000;0.000;2023-09-30T14:54:56;4.22;;;2.08;;
31182;SDS011;17813;0.000;0.000;2023-09-30T14:57:24;4.45;;;2.00;;
31182;SDS011;17813;0.000;0.000;2023-09-30T14:59:51;3.05;;;1.75;;
31182;SDS011;17813;0.000;0.000;2023-09-30T15:02:20;3.97;;;2.08;;
31182;SDS011;17813;0.000;0.000;2023-09-30T15:04:47;4.50;;;2.00;;
31182;SDS011;17813;0.000;0.000;2023-09-30T15:07:20;4.72;;;2.10;;
31182;SDS011;17813;0.000;0.000;2023-09-30T15:09:57;4.00;;;2.05;;
31182;SDS011;17813;0.000;0.000;2023-09-30T15:12:27;3.15;;;1.60;;
31182;SDS011;17813;0.000;0.000;2023-09-30T15:14:53;3.10;;;1.90;;
31182;SDS011;17813;0.000;0.000;2023-09-30T15:17:26;5.07;;;1.90;;
31182;SDS011;17813;0.000;0.000;2023-09-30T15:19:57;2.95;;;1.70;;
31182;SDS011;17813;0.000;0.000;2023-09-30T15:22:26;4.50;;;1.73;;
31182;SDS011;17813;0.000;0.000;2023-09-30T15:24:58;3.50;;;1.98;;
31182;SDS011;17813;0.000;0.000;2023-09-30T15:27:28;2.55;;;1.85;;
31182;SDS011;17813;0.000;0.000;2023-09-30T15:30:00;4.35;;;2.05;;
31182;SDS011;17813;0.000;0.000;2023-09-30T15:32:27;3.42;;;1.90;;
31182;SDS011;17813;0.000;0.000;2023-09-30T15:34:54;4.97;;;2.10;;